createdAt,value
2017-03-02T00:00:18.976Z,945.90
2017-03-02T00:01:29.020Z,945.93
2017-03-02T00:02:19.014Z,945.85
2017-03-02T00:03:19.309Z,945.88
2017-03-02T00:04:18.225Z,945.88
2017-03-02T00:05:18.499Z,945.89
2017-03-02T00:06:19.533Z,945.83
2017-03-02T00:07:19.075Z,945.93
2017-03-02T00:08:19.737Z,945.89
2017-03-02T00:09:23.569Z,945.88
2017-03-02T00:10:19.660Z,945.90
2017-03-02T00:11:19.205Z,945.95
2017-03-02T00:12:18.672Z,945.94
2017-03-02T00:13:20.775Z,945.95
2017-03-02T00:14:23.792Z,945.90
2017-03-02T00:15:33.742Z,945.92
2017-03-02T00:16:23.941Z,945.92
2017-03-02T00:17:19.083Z,945.91
2017-03-02T00:18:19.057Z,945.86
2017-03-02T00:19:19.091Z,945.88
2017-03-02T00:20:19.174Z,945.87
2017-03-02T00:21:19.778Z,945.86
2017-03-02T00:22:23.452Z,945.86
2017-03-02T00:23:19.470Z,945.87
2017-03-02T00:24:28.098Z,945.83
2017-03-02T00:25:19.031Z,945.89
2017-03-02T00:26:21.871Z,945.94
2017-03-02T00:27:20.861Z,945.87
2017-03-02T00:28:24.345Z,945.90
2017-03-02T00:29:19.476Z,945.86
2017-03-02T00:30:19.077Z,945.91
2017-03-02T00:31:19.232Z,945.95
2017-03-02T00:32:19.377Z,945.89
2017-03-02T00:33:22.771Z,945.93
2017-03-02T00:34:23.823Z,945.94
2017-03-02T00:35:22.943Z,945.94
2017-03-02T00:36:23.243Z,945.88
2017-03-02T00:37:19.183Z,945.90
2017-03-02T00:38:23.271Z,945.94
2017-03-02T00:39:18.958Z,945.92
2017-03-02T00:40:24.179Z,945.94
2017-03-02T00:41:18.953Z,945.91
2017-03-02T00:42:19.354Z,945.98
2017-03-02T00:43:18.740Z,945.95
2017-03-02T00:44:18.980Z,946.00
2017-03-02T00:45:13.643Z,945.98
2017-03-02T00:46:19.227Z,945.97
2017-03-02T00:47:19.396Z,946.04
2017-03-02T00:48:18.936Z,945.97
2017-03-02T00:49:19.400Z,945.97
2017-03-02T00:50:19.022Z,946.01
2017-03-02T00:51:19.106Z,945.98
2017-03-02T00:52:18.799Z,946.04
2017-03-02T00:53:23.970Z,946.09
2017-03-02T00:54:23.825Z,945.97
2017-03-02T00:55:22.559Z,945.98
2017-03-02T00:56:36.238Z,945.98
2017-03-02T00:57:19.060Z,946.00
2017-03-02T00:58:18.626Z,945.98
2017-03-02T00:59:19.289Z,945.96
2017-03-02T01:00:19.081Z,945.96
2017-03-02T01:01:19.188Z,945.92
2017-03-02T01:02:19.321Z,945.95
2017-03-02T01:03:13.877Z,945.99
2017-03-02T01:04:23.901Z,946.04
2017-03-02T01:05:13.539Z,945.95
2017-03-02T01:06:19.840Z,945.97
2017-03-02T01:07:22.670Z,945.95
2017-03-02T01:08:23.886Z,945.96
2017-03-02T01:09:19.125Z,945.93
2017-03-02T01:10:23.231Z,945.88
2017-03-02T01:11:20.379Z,945.90
2017-03-02T01:12:19.131Z,945.94
2017-03-02T01:13:19.314Z,945.96
2017-03-02T01:14:23.942Z,945.92
2017-03-02T01:15:27.640Z,945.95
2017-03-02T01:16:19.221Z,945.95
2017-03-02T01:17:18.656Z,945.94
2017-03-02T01:18:28.801Z,945.96
2017-03-02T01:19:19.326Z,945.92
2017-03-02T01:20:18.831Z,945.96
2017-03-02T01:21:20.015Z,945.93
2017-03-02T01:22:21.619Z,945.94
2017-03-02T01:23:14.387Z,946.04
2017-03-02T01:24:19.700Z,945.97
2017-03-02T01:25:19.321Z,945.96
2017-03-02T01:44:23.449Z,945.90
2017-03-02T01:45:27.917Z,945.98
2017-03-02T01:46:31.339Z,945.94
2017-03-02T01:47:23.796Z,945.96
2017-03-02T01:48:23.645Z,945.90
2017-03-02T01:49:31.619Z,945.98
2017-03-02T01:50:30.759Z,945.90
2017-03-02T01:51:33.081Z,945.93
2017-03-02T01:52:27.670Z,946.03
2017-03-02T01:53:28.178Z,945.95
2017-03-02T01:54:19.905Z,945.96
2017-03-02T01:55:27.913Z,946.02
2017-03-02T01:56:23.155Z,945.94
2017-03-02T01:57:20.546Z,945.96
2017-03-02T01:58:20.857Z,945.92
2017-03-02T01:59:19.675Z,945.94
2017-03-02T02:00:21.858Z,946.04
2017-03-02T02:01:19.823Z,946.00
2017-03-02T02:02:19.717Z,945.98
2017-03-02T02:03:20.735Z,945.98
2017-03-02T02:04:20.867Z,945.95
2017-03-02T02:05:15.347Z,945.90
2017-03-02T02:06:19.245Z,946.01
2017-03-02T02:07:28.061Z,945.89
2017-03-02T02:08:20.925Z,945.86
2017-03-02T02:09:23.146Z,945.87
2017-03-02T02:10:20.956Z,946.01
2017-03-02T02:11:26.330Z,945.93
2017-03-02T02:12:19.712Z,945.93
2017-03-02T02:13:24.760Z,946.00
2017-03-02T02:14:19.985Z,945.97
2017-03-02T02:15:25.716Z,945.93
2017-03-02T02:16:15.890Z,945.95
2017-03-02T02:17:37.895Z,945.93
2017-03-02T02:18:33.128Z,945.92
2017-03-02T02:23:14.584Z,945.93
2017-03-02T02:24:40.799Z,945.96
2017-03-02T02:25:26.711Z,945.93
2017-03-02T02:26:31.320Z,945.98
2017-03-02T02:27:20.853Z,945.97
2017-03-02T02:30:19.870Z,945.99
2017-03-02T02:31:20.533Z,946.07
2017-03-02T02:32:19.799Z,946.02
2017-03-02T02:33:25.653Z,946.06
2017-03-02T02:34:25.203Z,946.05
2017-03-02T02:35:28.213Z,946.14
2017-03-02T02:36:26.730Z,946.09
2017-03-02T02:37:22.970Z,946.16
2017-03-02T02:38:19.839Z,946.21
2017-03-02T02:39:20.252Z,946.30
2017-03-02T02:40:21.095Z,946.19
2017-03-02T02:41:19.572Z,946.25
2017-03-02T02:42:21.100Z,946.23
2017-03-02T02:43:19.712Z,946.24
2017-03-02T02:44:19.811Z,946.30
2017-03-02T02:45:19.786Z,946.09
2017-03-02T02:46:14.367Z,946.19
2017-03-02T02:47:19.709Z,946.27
2017-03-02T02:48:20.006Z,946.13
2017-03-02T02:49:21.136Z,946.18
2017-03-02T02:53:18.207Z,946.25
2017-03-02T02:54:40.174Z,946.18
2017-03-02T02:55:33.416Z,946.20
2017-03-02T02:56:32.931Z,946.29
2017-03-02T02:57:20.599Z,946.23
2017-03-02T02:58:32.285Z,946.24
2017-03-02T02:59:32.317Z,946.27
2017-03-02T03:00:27.108Z,946.19
2017-03-02T03:01:31.529Z,946.30
2017-03-02T03:02:33.619Z,946.26
2017-03-02T03:03:28.166Z,946.26
2017-03-02T03:04:19.630Z,946.31
2017-03-02T03:05:15.486Z,946.15
2017-03-02T03:06:33.850Z,946.18
2017-03-02T03:07:33.374Z,946.19
2017-03-02T03:08:37.168Z,946.28
2017-03-02T03:09:34.751Z,946.33
2017-03-02T03:11:33.174Z,946.28
2017-03-02T03:12:31.698Z,946.31
2017-03-02T03:13:32.572Z,946.30
2017-03-02T03:14:34.041Z,946.28
2017-03-02T03:15:19.995Z,946.31
2017-03-02T03:16:20.844Z,946.36
2017-03-02T03:17:23.046Z,946.33
2017-03-02T03:18:19.654Z,946.31
2017-03-02T03:19:19.819Z,946.34
2017-03-02T03:20:20.883Z,946.35
2017-03-02T03:21:19.812Z,946.29
2017-03-02T03:22:20.891Z,946.31
2017-03-02T03:23:21.319Z,946.35
2017-03-02T03:24:20.111Z,946.29
2017-03-02T03:25:32.872Z,946.29
2017-03-02T03:26:31.709Z,946.30
2017-03-02T03:27:33.387Z,946.28
2017-03-02T03:28:36.931Z,946.31
2017-03-02T03:29:21.200Z,946.27
2017-03-02T03:30:20.926Z,946.20
2017-03-02T03:31:20.734Z,946.24
2017-03-02T03:32:21.857Z,946.30
2017-03-02T03:33:21.287Z,946.25
2017-03-02T03:34:24.806Z,946.21
2017-03-02T03:35:20.310Z,946.23
2017-03-02T03:36:31.275Z,946.23
2017-03-02T03:37:31.746Z,946.28
2017-03-02T03:38:28.655Z,946.31
2017-03-02T03:39:20.764Z,946.25
2017-03-02T03:40:19.616Z,946.24
2017-03-02T03:41:27.535Z,946.18
2017-03-02T03:42:20.866Z,946.24
2017-03-02T03:43:26.269Z,946.24
2017-03-02T03:44:21.323Z,946.19
2017-03-02T03:45:20.254Z,946.20
2017-03-02T03:46:26.841Z,946.23
2017-03-02T03:47:19.770Z,946.19
2017-03-02T03:48:21.165Z,946.29
2017-03-02T03:49:21.335Z,946.24
2017-03-02T03:50:20.843Z,946.24
2017-03-02T03:51:20.872Z,946.31
2017-03-02T03:52:19.611Z,946.33
2017-03-02T03:53:31.813Z,946.34
2017-03-02T03:54:23.245Z,946.38
2017-03-02T03:55:19.624Z,946.42
2017-03-02T03:57:21.345Z,946.34
2017-03-02T03:58:21.835Z,946.36
2017-03-02T03:59:27.631Z,946.35
2017-03-02T04:00:20.118Z,946.41
2017-03-02T04:01:20.223Z,946.39
2017-03-02T04:02:20.649Z,946.37
2017-03-02T04:03:20.533Z,946.50
2017-03-02T04:04:23.947Z,946.37
2017-03-02T04:09:20.333Z,946.46
2017-03-02T04:10:21.482Z,946.51
2017-03-02T04:12:35.084Z,946.59
2017-03-02T04:13:20.605Z,946.49
2017-03-02T04:15:19.185Z,946.57
2017-03-02T04:16:20.902Z,946.51
2017-03-02T04:19:33.718Z,946.56
2017-03-02T04:20:32.280Z,946.52
2017-03-02T04:21:23.247Z,946.55
2017-03-02T04:22:37.604Z,946.54
2017-03-02T04:23:33.110Z,946.61
2017-03-02T04:26:15.954Z,946.49
2017-03-02T04:26:29.831Z,946.55
2017-03-02T04:27:34.312Z,946.66
2017-03-02T04:28:34.407Z,946.49
2017-03-02T04:29:28.278Z,946.63
2017-03-02T04:31:14.066Z,946.50
2017-03-02T04:34:33.403Z,946.58
2017-03-02T04:35:23.547Z,946.56
2017-03-02T04:36:20.452Z,946.68
2017-03-02T04:37:23.704Z,946.51
2017-03-02T04:38:21.808Z,946.58
2017-03-02T04:39:23.450Z,946.63
2017-03-02T04:40:28.483Z,946.56
2017-03-02T04:41:21.336Z,946.63
2017-03-02T04:42:23.689Z,946.53
2017-03-02T04:43:25.397Z,946.62
2017-03-02T04:44:28.129Z,946.59
2017-03-02T04:45:21.331Z,946.47
2017-03-02T04:46:37.320Z,946.57
2017-03-02T04:47:20.598Z,946.57
2017-03-02T04:48:21.236Z,946.53
2017-03-02T04:49:18.659Z,946.57
2017-03-02T04:50:20.375Z,946.58
2017-03-02T04:51:31.487Z,946.48
2017-03-02T04:52:20.389Z,946.57
2017-03-02T04:53:26.342Z,946.49
2017-03-02T04:54:36.189Z,946.55
2017-03-02T04:55:31.323Z,946.52
2017-03-02T04:56:25.216Z,946.56
2017-03-02T04:57:31.189Z,946.59
2017-03-02T04:58:23.129Z,946.51
2017-03-02T04:59:26.904Z,946.54
2017-03-02T05:00:20.823Z,946.57
2017-03-02T05:01:21.409Z,946.53
2017-03-02T05:02:31.520Z,946.56
2017-03-02T05:03:20.452Z,946.59
2017-03-02T05:04:20.467Z,946.63
2017-03-02T05:05:22.538Z,946.58
2017-03-02T05:06:20.484Z,946.68
2017-03-02T05:07:26.095Z,946.59
2017-03-02T05:08:21.523Z,946.66
2017-03-02T05:09:25.422Z,946.62
2017-03-02T05:10:20.356Z,946.60
2017-03-02T05:11:21.464Z,946.64
2017-03-02T05:12:20.487Z,946.61
2017-03-02T05:13:20.474Z,946.62
2017-03-02T05:14:20.776Z,946.63
2017-03-02T05:15:21.104Z,946.64
2017-03-02T05:16:20.716Z,946.67
2017-03-02T05:17:21.824Z,946.65
2017-03-02T05:18:15.617Z,946.55
2017-03-02T05:19:20.505Z,946.59
2017-03-02T05:20:20.617Z,946.64
2017-03-02T05:21:20.314Z,946.64
2017-03-02T05:22:28.528Z,946.67
2017-03-02T05:23:31.992Z,946.60
2017-03-02T05:24:26.296Z,946.66
2017-03-02T05:29:20.921Z,946.70
2017-03-02T05:35:31.729Z,946.80
2017-03-02T05:36:15.551Z,946.87
2017-03-02T05:37:22.994Z,946.91
2017-03-02T05:38:20.976Z,946.86
2017-03-02T05:39:20.793Z,946.95
2017-03-02T05:46:27.478Z,947.11
2017-03-02T05:53:25.992Z,947.16
2017-03-02T05:54:21.301Z,947.17
2017-03-02T05:55:20.887Z,947.19
2017-03-02T05:56:21.017Z,947.17
2017-03-02T05:58:26.918Z,947.18
2017-03-02T06:03:20.863Z,947.16
2017-03-02T06:04:33.074Z,947.11
2017-03-02T06:05:16.315Z,947.13
2017-03-02T06:06:28.068Z,947.11
2017-03-02T06:07:23.786Z,947.11
2017-03-02T06:08:22.790Z,947.09
2017-03-02T06:09:37.324Z,947.16
2017-03-02T06:10:39.712Z,947.15
2017-03-02T06:11:33.725Z,947.15
2017-03-02T06:12:32.067Z,947.15
2017-03-02T06:13:21.812Z,947.15
2017-03-02T06:14:23.446Z,947.17
2017-03-02T06:15:16.515Z,947.14
2017-03-02T06:16:21.134Z,947.15
2017-03-02T06:17:31.737Z,947.21
2017-03-02T06:18:26.103Z,947.23
2017-03-02T06:19:31.703Z,947.21
2017-03-02T06:20:25.978Z,947.24
2017-03-02T06:21:27.491Z,947.40
2017-03-02T06:22:15.534Z,947.33
2017-03-02T06:23:20.966Z,947.38
2017-03-02T06:26:20.902Z,947.43
2017-03-02T06:27:27.020Z,947.49
2017-03-02T06:33:27.353Z,947.54
2017-03-02T06:34:22.217Z,947.64
2017-03-02T06:35:22.125Z,947.62
2017-03-02T06:36:27.161Z,947.62
2017-03-02T06:37:21.207Z,947.68
2017-03-02T06:38:22.212Z,947.78
2017-03-02T06:39:22.174Z,947.77
2017-03-02T06:40:26.553Z,947.65
2017-03-02T06:41:31.688Z,947.92
2017-03-02T06:42:21.938Z,947.76
2017-03-02T06:44:22.227Z,947.78
2017-03-02T06:45:25.280Z,947.75
2017-03-02T06:48:22.272Z,947.87
2017-03-02T06:54:21.525Z,948.02
2017-03-02T06:56:21.105Z,948.07
2017-03-02T06:57:21.384Z,948.03
2017-03-02T06:58:26.593Z,948.06
2017-03-02T06:59:26.345Z,948.12
2017-03-02T07:00:21.263Z,948.15
2017-03-02T07:02:36.822Z,948.28
2017-03-02T07:03:31.264Z,948.17
2017-03-02T07:04:33.353Z,948.24
2017-03-02T07:05:31.944Z,948.24
2017-03-02T07:06:33.356Z,948.18
2017-03-02T07:07:32.723Z,948.23
2017-03-02T07:08:35.285Z,948.29
2017-03-02T07:09:32.370Z,948.32
2017-03-02T07:10:28.735Z,948.26
2017-03-02T07:11:18.865Z,948.42
2017-03-02T07:12:24.275Z,948.31
2017-03-02T07:13:21.702Z,948.40
2017-03-02T07:14:31.603Z,948.43
2017-03-02T07:17:32.919Z,948.54
2017-03-02T07:18:23.902Z,948.58
2017-03-02T07:19:31.659Z,948.62
2017-03-02T07:20:17.614Z,948.51
2017-03-02T07:21:32.200Z,948.63
2017-03-02T07:22:23.422Z,948.52
2017-03-02T07:23:27.504Z,948.51
2017-03-02T07:24:18.090Z,948.59
2017-03-02T07:25:21.403Z,948.57
2017-03-02T07:26:21.304Z,948.66
2017-03-02T07:27:21.365Z,948.68
2017-03-02T07:28:26.226Z,948.64
2017-03-02T07:29:36.316Z,948.68
2017-03-02T07:30:25.984Z,948.76
2017-03-02T07:31:21.153Z,948.79
2017-03-02T07:32:21.392Z,948.67
2017-03-02T07:33:32.351Z,948.83
2017-03-02T07:34:21.141Z,948.77
2017-03-02T07:35:32.349Z,948.80
2017-03-02T07:36:23.089Z,948.80
2017-03-02T07:37:22.271Z,948.86
2017-03-02T07:38:21.402Z,948.84
2017-03-02T07:39:22.403Z,948.93
2017-03-02T07:40:22.744Z,948.82
2017-03-02T07:41:32.271Z,948.87
2017-03-02T07:42:25.316Z,948.79
2017-03-02T07:43:17.034Z,949.01
2017-03-02T07:44:25.974Z,949.01
2017-03-02T07:45:30.785Z,948.94
2017-03-02T07:46:31.324Z,948.98
2017-03-02T07:47:32.472Z,949.05
2017-03-02T07:48:23.680Z,949.14
2017-03-02T07:49:22.101Z,949.29
2017-03-02T07:50:25.214Z,949.44
2017-03-02T07:51:27.459Z,949.42
2017-03-02T07:52:21.199Z,949.47
2017-03-02T07:53:26.287Z,949.49
2017-03-02T07:54:26.745Z,949.50
2017-03-02T07:55:23.051Z,949.52
2017-03-02T07:56:27.373Z,949.60
2017-03-02T07:57:18.757Z,949.47
2017-03-02T07:58:23.356Z,949.56
2017-03-02T07:59:21.464Z,949.51
2017-03-02T08:00:17.516Z,949.55
2017-03-02T08:01:26.292Z,949.65
2017-03-02T08:02:21.421Z,949.70
2017-03-02T08:03:22.405Z,949.59
2017-03-02T08:04:22.449Z,949.69
2017-03-02T08:05:21.511Z,949.75
2017-03-02T08:06:27.470Z,949.77
2017-03-02T08:07:21.613Z,949.72
2017-03-02T08:09:21.456Z,949.75
2017-03-02T08:10:21.484Z,949.71
2017-03-02T08:11:14.628Z,949.76
2017-03-02T08:12:18.476Z,949.85
2017-03-02T08:13:26.747Z,949.73
2017-03-02T08:14:21.472Z,949.85
2017-03-02T08:15:19.881Z,949.80
2017-03-02T08:16:22.777Z,949.85
2017-03-02T08:17:22.679Z,949.89
2017-03-02T08:18:21.510Z,950.15
2017-03-02T08:19:21.475Z,949.83
2017-03-02T08:20:21.505Z,949.90
2017-03-02T08:21:19.577Z,949.92
2017-03-02T08:22:22.396Z,949.90
2017-03-02T08:23:22.479Z,950.06
2017-03-02T08:24:19.836Z,950.00
2017-03-02T08:25:19.465Z,949.96
2017-03-02T08:26:32.230Z,950.09
2017-03-02T08:27:22.323Z,950.12
2017-03-02T08:28:22.395Z,950.14
2017-03-02T08:29:21.545Z,950.03
2017-03-02T08:30:21.540Z,950.01
2017-03-02T08:31:21.489Z,950.19
2017-03-02T08:32:21.486Z,950.16
2017-03-02T08:33:21.496Z,950.21
2017-03-02T08:34:26.376Z,950.26
2017-03-02T08:35:21.482Z,950.37
2017-03-02T08:36:21.322Z,950.36
2017-03-02T08:37:31.432Z,950.34
2017-03-02T08:38:26.303Z,950.43
2017-03-02T08:39:27.555Z,950.47
2017-03-02T08:40:28.127Z,950.43
2017-03-02T08:41:32.047Z,950.54
2017-03-02T08:42:26.433Z,950.51
2017-03-02T08:43:21.237Z,950.42
2017-03-02T08:44:21.498Z,950.55
2017-03-02T08:45:26.585Z,950.54
2017-03-02T08:46:21.567Z,950.55
2017-03-02T08:47:27.165Z,950.47
2017-03-02T08:48:21.405Z,950.50
2017-03-02T08:49:21.424Z,950.49
2017-03-02T08:50:21.602Z,950.54
2017-03-02T08:51:16.556Z,950.51
2017-03-02T08:52:27.649Z,950.64
2017-03-02T08:53:21.488Z,950.71
2017-03-02T08:54:21.474Z,950.69
2017-03-02T08:55:23.886Z,950.66
2017-03-02T08:56:16.711Z,950.53
2017-03-02T08:57:21.157Z,950.63
2017-03-02T09:00:22.412Z,950.81
2017-03-02T09:01:21.445Z,950.78
2017-03-02T09:02:21.258Z,950.73
2017-03-02T09:03:26.377Z,950.72
2017-03-02T09:04:19.744Z,950.63
2017-03-02T09:05:19.662Z,950.66
2017-03-02T09:06:29.469Z,950.69
2017-03-02T09:07:21.381Z,950.81
2017-03-02T09:08:18.405Z,950.57
2017-03-02T09:09:22.492Z,950.58
2017-03-02T09:10:26.465Z,950.67
2017-03-02T09:11:26.953Z,950.66
2017-03-02T09:12:19.014Z,950.63
2017-03-02T09:13:21.523Z,950.64
2017-03-02T09:14:21.543Z,950.66
2017-03-02T09:15:19.386Z,950.71
2017-03-02T09:16:26.546Z,950.73
2017-03-02T09:17:22.890Z,950.64
2017-03-02T09:18:27.253Z,950.78
2017-03-02T09:19:17.585Z,950.80
2017-03-02T09:20:32.278Z,950.75
2017-03-02T09:21:18.855Z,950.70
2017-03-02T09:22:15.885Z,950.72
2017-03-02T09:23:26.859Z,950.71
2017-03-02T09:24:15.986Z,950.72
2017-03-02T09:25:19.316Z,950.88
2017-03-02T09:26:21.565Z,950.82
2017-03-02T09:27:21.451Z,950.90
2017-03-02T09:28:21.043Z,950.89
2017-03-02T09:29:10.967Z,950.95
2017-03-02T09:30:21.588Z,950.98
2017-03-02T09:31:22.172Z,950.94
2017-03-02T09:32:34.505Z,951.01
2017-03-02T09:33:21.583Z,951.09
2017-03-02T09:34:23.047Z,951.13
2017-03-02T09:35:27.997Z,951.01
2017-03-02T09:36:27.954Z,951.09
2017-03-02T09:37:26.827Z,951.07
2017-03-02T09:38:22.606Z,951.15
2017-03-02T09:39:21.669Z,951.13
2017-03-02T09:40:21.638Z,951.07
2017-03-02T09:41:21.609Z,951.11
2017-03-02T09:42:27.792Z,951.08
2017-03-02T09:43:22.770Z,951.11
2017-03-02T09:44:22.247Z,951.17
2017-03-02T09:45:19.334Z,951.22
2017-03-02T09:46:22.927Z,951.23
2017-03-02T09:47:31.571Z,951.34
2017-03-02T09:48:21.458Z,951.28
2017-03-02T09:49:21.536Z,951.31
2017-03-02T09:50:29.262Z,951.28
2017-03-02T09:51:31.565Z,951.22
2017-03-02T09:52:22.627Z,951.23
2017-03-02T09:53:21.368Z,951.23
2017-03-02T09:54:32.079Z,951.29
2017-03-02T09:55:22.679Z,951.34
2017-03-02T09:56:22.404Z,951.37
2017-03-02T09:57:16.066Z,951.34
2017-03-02T09:58:21.623Z,951.42
2017-03-02T09:59:21.550Z,951.38
2017-03-02T10:00:21.595Z,951.52
2017-03-02T10:01:23.961Z,951.48
2017-03-02T10:02:26.828Z,951.52
2017-03-02T10:03:21.611Z,951.58
2017-03-02T10:04:21.679Z,951.61
2017-03-02T10:05:21.687Z,951.61
2017-03-02T10:06:17.005Z,951.66
2017-03-02T10:07:21.685Z,951.57
2017-03-02T10:08:21.810Z,951.55
2017-03-02T10:09:27.901Z,951.60
2017-03-02T10:10:27.641Z,951.65
2017-03-02T10:11:22.632Z,951.65
2017-03-02T10:12:21.675Z,951.71
2017-03-02T10:13:22.605Z,951.73
2017-03-02T10:14:31.622Z,951.74
2017-03-02T10:15:26.672Z,951.74
2017-03-02T10:16:21.610Z,951.75
2017-03-02T10:17:26.582Z,951.74
2017-03-02T10:18:26.569Z,951.87
2017-03-02T10:19:21.211Z,951.78
2017-03-02T10:20:26.507Z,951.81
2017-03-02T10:21:21.737Z,951.84
2017-03-02T10:22:16.875Z,951.75
2017-03-02T10:23:21.712Z,951.80
2017-03-02T10:24:21.961Z,951.77
2017-03-02T10:25:21.717Z,951.79
2017-03-02T10:26:26.824Z,951.82
2017-03-02T10:27:27.269Z,951.92
2017-03-02T10:28:24.333Z,951.94
2017-03-02T10:29:26.706Z,951.96
2017-03-02T10:30:21.746Z,951.94
2017-03-02T10:31:21.648Z,952.00
2017-03-02T10:32:21.704Z,951.93
2017-03-02T10:33:33.942Z,951.90
2017-03-02T10:34:26.683Z,951.96
2017-03-02T10:35:21.229Z,951.95
2017-03-02T10:36:21.674Z,951.91
2017-03-02T10:37:21.715Z,951.90
2017-03-02T10:38:24.201Z,951.86
2017-03-02T10:39:27.423Z,951.94
2017-03-02T10:40:21.403Z,951.90
2017-03-02T10:41:26.684Z,951.89
2017-03-02T10:42:26.582Z,951.98
2017-03-02T10:43:22.732Z,951.92
2017-03-02T10:44:21.693Z,951.94
2017-03-02T10:45:21.742Z,951.98
2017-03-02T10:46:36.815Z,951.98
2017-03-02T10:47:26.649Z,951.96
2017-03-02T10:48:22.734Z,952.03
2017-03-02T10:49:18.862Z,952.08
2017-03-02T10:50:17.420Z,952.06
2017-03-02T10:51:18.956Z,952.07
2017-03-02T10:52:21.757Z,951.97
2017-03-02T10:53:22.712Z,952.07
2017-03-02T10:54:22.758Z,952.14
2017-03-02T10:55:22.766Z,952.10
2017-03-02T10:56:22.261Z,952.16
2017-03-02T10:57:22.753Z,952.23
2017-03-02T10:58:27.465Z,952.23
2017-03-02T10:59:21.371Z,952.15
2017-03-02T11:00:22.379Z,952.08
2017-03-02T11:01:21.664Z,952.44
2017-03-02T11:02:19.639Z,952.19
2017-03-02T11:03:22.095Z,952.07
2017-03-02T11:04:22.775Z,952.08
2017-03-02T11:05:19.656Z,952.19
2017-03-02T11:06:16.026Z,952.22
2017-03-02T11:07:21.782Z,952.19
2017-03-02T11:08:22.012Z,952.15
2017-03-02T11:09:21.878Z,952.28
2017-03-02T11:10:16.479Z,952.21
2017-03-02T11:11:21.775Z,952.17
2017-03-02T11:12:20.775Z,952.21
2017-03-02T11:13:32.080Z,952.25
2017-03-02T11:14:32.340Z,952.18
2017-03-02T11:15:16.547Z,952.18
2017-03-02T11:16:23.721Z,952.20
2017-03-02T11:17:27.982Z,952.25
2017-03-02T11:18:21.556Z,952.20
2017-03-02T11:19:21.579Z,952.26
2017-03-02T11:20:26.830Z,952.07
2017-03-02T11:21:22.821Z,952.04
2017-03-02T11:22:19.925Z,952.11
2017-03-02T11:23:31.761Z,952.13
2017-03-02T11:24:21.870Z,952.12
2017-03-02T11:25:31.597Z,952.16
2017-03-02T11:26:26.790Z,952.13
2017-03-02T11:27:21.854Z,952.08
2017-03-02T11:28:21.876Z,952.28
2017-03-02T11:29:24.740Z,952.16
2017-03-02T11:30:21.598Z,952.15
2017-03-02T11:31:21.862Z,952.19
2017-03-02T11:32:21.861Z,952.12
2017-03-02T11:33:21.972Z,952.14
2017-03-02T11:34:21.691Z,952.19
2017-03-02T11:35:34.122Z,952.23
2017-03-02T11:36:29.823Z,952.29
2017-03-02T11:37:30.639Z,952.35
2017-03-02T11:38:21.307Z,952.31
2017-03-02T11:39:21.902Z,952.25
2017-03-02T11:40:28.665Z,952.23
2017-03-02T11:41:26.748Z,952.29
2017-03-02T11:42:26.940Z,952.29
2017-03-02T11:43:17.256Z,952.30
2017-03-02T11:44:21.655Z,952.44
2017-03-02T11:45:27.932Z,952.41
2017-03-02T11:46:22.518Z,952.39
2017-03-02T11:47:26.678Z,952.32
2017-03-02T11:48:21.587Z,952.36
2017-03-02T11:49:22.776Z,952.46
2017-03-02T11:50:26.862Z,952.43
2017-03-02T11:51:19.701Z,952.35
2017-03-02T11:53:26.820Z,952.38
2017-03-02T11:54:36.979Z,952.27
2017-03-02T11:55:23.040Z,952.21
2017-03-02T11:56:21.778Z,952.26
2017-03-02T11:57:26.916Z,952.25
2017-03-02T11:58:18.470Z,952.28
2017-03-02T11:59:22.566Z,952.30
2017-03-02T12:00:18.947Z,952.33
2017-03-02T12:01:21.786Z,952.30
2017-03-02T12:02:19.459Z,952.32
2017-03-02T12:03:26.749Z,952.30
2017-03-02T12:04:21.797Z,952.43
2017-03-02T12:05:22.489Z,952.38
2017-03-02T12:06:22.820Z,952.39
2017-03-02T12:07:27.171Z,952.37
2017-03-02T12:08:32.001Z,952.28
2017-03-02T12:09:26.869Z,952.33
2017-03-02T12:10:27.291Z,952.36
2017-03-02T12:11:18.373Z,952.34
2017-03-02T12:12:22.608Z,952.32
2017-03-02T12:13:27.658Z,952.28
2017-03-02T12:14:26.694Z,952.25
2017-03-02T12:15:32.130Z,952.32
2017-03-02T12:16:21.399Z,952.29
2017-03-02T12:17:19.112Z,952.37
2017-03-02T12:18:20.913Z,952.27
2017-03-02T12:19:24.303Z,952.26
2017-03-02T12:20:19.462Z,952.29
2017-03-02T12:21:23.769Z,952.29
2017-03-02T12:22:23.090Z,952.29
2017-03-02T12:23:21.940Z,952.24
2017-03-02T12:24:34.738Z,952.28
2017-03-02T12:25:21.871Z,952.24
2017-03-02T12:26:26.248Z,952.34
2017-03-02T12:27:32.762Z,952.42
2017-03-02T12:28:22.543Z,952.28
2017-03-02T12:29:22.072Z,952.20
2017-03-02T12:30:42.708Z,952.22
2017-03-02T12:31:21.950Z,952.22
2017-03-02T12:32:24.093Z,952.21
2017-03-02T12:33:28.216Z,952.29
2017-03-02T12:34:17.271Z,952.34
2017-03-02T12:37:22.165Z,952.31
2017-03-02T12:38:26.780Z,952.33
2017-03-02T12:39:27.229Z,952.28
2017-03-02T12:40:21.638Z,952.26
2017-03-02T12:41:23.108Z,952.43
2017-03-02T12:42:21.794Z,952.41
2017-03-02T12:43:19.957Z,952.35
2017-03-02T12:44:19.922Z,952.37
2017-03-02T12:45:21.971Z,952.45
2017-03-02T12:46:21.788Z,952.47
2017-03-02T12:47:26.466Z,952.39
2017-03-02T12:48:22.816Z,952.45
2017-03-02T12:49:21.930Z,952.36
2017-03-02T12:50:21.939Z,952.33
2017-03-02T12:51:22.106Z,952.44
2017-03-02T12:52:22.051Z,952.34
2017-03-02T12:53:21.966Z,952.37
2017-03-02T12:54:20.054Z,952.35
2017-03-02T12:55:27.481Z,952.36
2017-03-02T12:56:22.025Z,952.37
2017-03-02T12:57:29.082Z,952.42
2017-03-02T12:58:18.849Z,952.44
2017-03-02T12:59:21.796Z,952.43
2017-03-02T13:00:17.892Z,952.49
2017-03-02T13:01:23.112Z,952.40
2017-03-02T13:02:22.902Z,952.46
2017-03-02T13:03:21.972Z,952.41
2017-03-02T13:04:19.036Z,952.46
2017-03-02T13:05:21.966Z,952.47
2017-03-02T13:06:27.076Z,952.43
2017-03-02T13:09:23.144Z,952.50
2017-03-02T13:10:31.999Z,952.50
2017-03-02T13:11:21.807Z,952.59
2017-03-02T13:12:25.081Z,952.53
2017-03-02T13:14:22.532Z,952.61
2017-03-02T13:16:27.836Z,952.79
2017-03-02T13:17:24.999Z,952.68
2017-03-02T13:18:31.896Z,952.68
2017-03-02T13:21:40.474Z,952.70
2017-03-02T13:22:16.554Z,952.77
2017-03-02T13:24:17.943Z,952.72
2017-03-02T13:26:21.062Z,952.70
2017-03-02T13:27:12.494Z,952.68
2017-03-02T13:31:26.471Z,952.77
2017-03-02T13:32:25.784Z,952.61
2017-03-02T13:33:32.986Z,952.80
2017-03-02T13:34:27.134Z,952.71
2017-03-02T13:35:26.612Z,952.72
2017-03-02T13:36:22.182Z,952.75
2017-03-02T13:37:19.792Z,952.77
2017-03-02T13:39:27.625Z,952.74
2017-03-02T13:40:26.369Z,952.85
2017-03-02T13:41:22.508Z,952.75
2017-03-02T13:42:27.254Z,952.74
2017-03-02T13:43:17.534Z,952.77
2017-03-02T13:44:18.417Z,952.72
2017-03-02T13:45:23.110Z,952.81
2017-03-02T13:46:23.137Z,952.74
2017-03-02T13:47:19.293Z,952.79
2017-03-02T13:48:18.422Z,952.76
2017-03-02T13:49:23.899Z,952.80
2017-03-02T13:50:22.086Z,952.77
2017-03-02T13:51:21.801Z,952.74
2017-03-02T13:52:21.822Z,952.87
2017-03-02T13:53:22.138Z,952.79
2017-03-02T13:54:18.700Z,952.81
2017-03-02T13:55:21.988Z,952.76
2017-03-02T13:56:24.934Z,952.75
2017-03-02T13:57:22.078Z,952.83
2017-03-02T13:59:22.177Z,952.76
2017-03-02T14:00:22.781Z,952.71
2017-03-02T14:01:27.420Z,952.86
2017-03-02T14:02:19.487Z,952.74
2017-03-02T14:03:31.500Z,952.78
2017-03-02T14:04:27.867Z,952.91
2017-03-02T14:05:31.629Z,952.87
2017-03-02T14:06:28.587Z,952.83
2017-03-02T14:07:24.579Z,952.88
2017-03-02T14:08:27.756Z,952.99
2017-03-02T14:09:26.873Z,952.87
2017-03-02T14:10:24.483Z,952.87
2017-03-02T14:11:21.107Z,952.85
2017-03-02T14:12:25.548Z,952.83
2017-03-02T14:13:28.544Z,952.78